• Join FlightAware (Why Join?)
  • Login
  • US Flag GB Flag 
08:58 EDT


 

Airport Tracker/Info


-or-


 

Live Flight TrackerFlight Track Log ✈ EJA221 ✈ 21-Sep-2013 ✈ KBAF - KMMU

Flight Track Log - Related Links

Times and Time Zones

All times are in EDT time to prevent confusion due to time zone crossing. See the EJA221 flight status page for this flight to view local times or setup timezone preferences in your user account.

Time Position Orientation Groundspeed Altitude Reporting Facility
EDT Latitude Longitude Course Direction KTS MPH feet Rate Location/Type
16:53 42.1458 -72.7061 134° Southeast 153 176 1,300  Level Boston Center
16:54 42.1042 -72.6472 134° Southeast 222 255 5,400 3,660 Climbing Boston Center
16:54 42.1000 -72.6386 123° Southeast 251 289 5,800 4,320 Climbing Boston Center
16:55 42.0522 -72.6667 204° Southwest 248 285 9,300 3,660 Climbing Boston Center
16:55 42.0542 -72.6806 281° West 260 299 9,500 660 Climbing Boston Center
16:56 42.0664 -72.7811 279° West 378 435 10,000 480 Climbing Boston Center
16:56 42.0706 -72.8036 284° West 382 440 10,000  Level Boston Center
16:57 42.0992 -72.9522 285° West 427 491 10,000  Level Boston Center
16:58 42.1236 -73.0811 284° West 422 486 10,100  Climbing Boston Center
16:59 42.1286 -73.2436 272° West 402 463 10,100 -120 Level Boston Center
17:00 42.1194 -73.3722 265° West 397 457 9,900 -60 Descending Boston Center
17:01 42.1078 -73.5147 264° West 397 457 10,000  Climbing Boston Center
17:02 42.0953 -73.6964 265° West 385 443 9,900  Descending Boston Center
17:03 42.0878 -73.8081 265° West 380 437 10,000  Climbing Boston Center
17:04 42.0731 -73.9783 263° West 386 444 9,900 -120 Descending Boston Center
17:05 42.0650 -74.1069 265° West 392 451 9,800  Descending Boston Center
17:06 42.0025 -74.2392 238° Southwest 371 427 10,000 60 Climbing Boston Center
17:07 41.9203 -74.3039 210° Southwest 364 419 10,000  Level Boston Center
17:08 41.8231 -74.3875 213° Southwest 379 436 10,000 -420 Level Boston Center
17:09 41.7447 -74.4517 211° Southwest 385 443 9,200 -1,020 Descending Boston Center
17:10 41.6875 -74.5000 212° Southwest 315 362 8,000 -1,320 Descending Boston Center
17:11 41.6219 -74.5506 210° Southwest 259 298 6,600 -1,020 Descending Boston Center
17:12 41.5508 -74.5650 189° South 233 268 6,000 -300 Descending Boston Center
17:15 41.3833 -74.5833 185° South 244 281 5,600 -300 Descending New York TRACON
17:16 41.3167 -74.5333 151° Southeast 248 285 5,100 -540 Descending New York TRACON
17:16 41.2667 -74.5000 153° Southeast 249 287 4,600 -540 Descending New York TRACON
17:18 41.2000 -74.4500 151° Southeast 249 287 4,100 -600 Descending New York TRACON
17:18 41.1500 -74.4167 153° Southeast 242 278 3,400 -540 Descending New York TRACON
17:20 41.0833 -74.3833 159° South 221 254 3,100 -180 Descending New York TRACON
17:20 41.0333 -74.3500 153° Southeast 191 220 3,100 -360 Level New York TRACON
17:22 40.9833 -74.3167 153° Southeast 193 222 2,400 -540 Descending New York TRACON
17:22 40.9333 -74.3167 180° South 182 209 2,100 -180 Descending New York TRACON
17:24 40.8833 -74.3333 194° South 159 183 2,100 -300 Level New York TRACON
17:24 40.8500 -74.3667 217° Southwest 151 174 1,500 -600 Descending New York TRACON
17:25 40.8333 -74.3833 217° Southwest 124 143 1,000 -540 Descending New York TRACON
17:27 40.7993 -74.4149 184° South  Level Estimated
17:34 40.7993 -74.4149 184° South  Level Estimated
17:35 40.7993 -74.4149 184° South  Level Estimated
17:36 40.7993 -74.4149 184° South  Level Estimated
17:37 40.7993 -74.4149 184° South  Level Estimated